^^
Your Local Weather - Clay, NY Station Historical Data
Daily Summary for March 2, 2017 Units:  Metric    English   Both
« Previous Day
Next Day »
Daily Weekly Monthly Yearly Custom
  High: Low: Average:
Temperature: 7.6 °C -7.2 °C -2.2 °C
Dew Point: 0.9 °C -11.3 °C -7.7 °C
Humidity: 86% 55% 67%
Wind Speed: 19.3km/h 3.2km/h 10.8km/h
Wind Gust: 33.8km/h - -
Wind- - WNW
Pressure: 1020.2 hPa 994.1 hPa -
Precipitation: 0 mm    
Historical Graphs
 
 
Tabular Data for March 2, 2017
Time Temperature Dew Point Pressure Wind Wind Speed Wind Gust Humidity Rainfall Rate (Hourly) solar
00:04 7.6 °C 0.7 °C 994.1 hPa West 8 km/h 9.7 km/h 62% 0 mm 0 W/m2
00:09 7.5 °C 0.9 °C 994.8 hPa West 6.4 km/h 6.4 km/h 63% 0 mm 0 W/m2
00:15 7.3 °C 0 °C 994.8 hPa WNW 9.7 km/h 29 km/h 60% 0 mm 0 W/m2
00:22 7.2 °C -0.3 °C 994.8 hPa West 14.5 km/h 14.5 km/h 59% 0 mm 0 W/m2
00:28 7.1 °C -0.7 °C 994.8 hPa SSW 14.5 km/h 17.7 km/h 58% 0 mm 0 W/m2
00:34 6.9 °C -1.3 °C 994.8 hPa West 16.1 km/h 19.3 km/h 56% 0 mm 0 W/m2
00:39 6.8 °C -1.4 °C 994.8 hPa SW 17.7 km/h 17.7 km/h 56% 0 mm 0 W/m2
00:45 6.7 °C -1.7 °C 994.8 hPa West 17.7 km/h 22.5 km/h 55% 0 mm 0 W/m2
00:52 6.6 °C -1.8 °C 994.8 hPa WSW 17.7 km/h 20.9 km/h 55% 0 mm 0 W/m2
00:58 6.4 °C -1.9 °C 995.1 hPa WNW 19.3 km/h 24.1 km/h 55% 0 mm 0 W/m2
01:03 6.3 °C -1.8 °C 995.1 hPa WNW 17.7 km/h 19.3 km/h 56% 0 mm 0 W/m2
01:10 6.2 °C -1.9 °C 995.1 hPa WNW 16.1 km/h 16.1 km/h 56% 0 mm 0 W/m2
01:15 6.1 °C -1.8 °C 995.1 hPa West 14.5 km/h 20.9 km/h 57% 0 mm 0 W/m2
01:22 6 °C -1.9 °C 995.1 hPa WSW 14.5 km/h 14.5 km/h 57% 0 mm 0 W/m2
01:28 5.9 °C -2 °C 995.1 hPa West 12.9 km/h 14.5 km/h 57% 0 mm 0 W/m2
01:34 5.8 °C -1.8 °C 995.1 hPa SW 9.7 km/h 20.9 km/h 58% 0 mm 0 W/m2
01:39 5.6 °C -2 °C 995.1 hPa West 12.9 km/h 12.9 km/h 58% 0 mm 0 W/m2
01:46 5.5 °C -2.1 °C 995.1 hPa West 12.9 km/h 14.5 km/h 58% 0 mm 0 W/m2
01:52 5.4 °C -2.4 °C 995.5 hPa WSW 14.5 km/h 25.7 km/h 57% 0 mm 0 W/m2
01:58 5.4 °C -2.4 °C 995.5 hPa West 14.5 km/h 25.7 km/h 57% 0 mm 0 W/m2
02:03 5 °C -1.4 °C 996.2 hPa WNW 12.9 km/h 24.1 km/h 63% 0 mm 0 W/m2
02:10 3.9 °C -1.2 °C 996.2 hPa WNW 14.5 km/h 17.7 km/h 69% 0 mm 0 W/m2
02:15 3.4 °C -1.5 °C 996.2 hPa West 12.9 km/h 17.7 km/h 70% 0 mm 0 W/m2
02:22 3.4 °C -1.5 °C 996.2 hPa WNW 11.3 km/h 19.3 km/h 70% 0 mm 0 W/m2
02:28 3.5 °C -1.4 °C 996.5 hPa NW 11.3 km/h 19.3 km/h 70% 0 mm 0 W/m2
02:33 3.6 °C -1.9 °C 996.5 hPa West 11.3 km/h 12.9 km/h 67% 0 mm 0 W/m2
02:39 3.7 °C -1.9 °C 996.5 hPa West 9.7 km/h 17.7 km/h 67% 0 mm 0 W/m2
02:46 3.7 °C -1.9 °C 996.5 hPa West 8 km/h 17.7 km/h 67% 0 mm 0 W/m2
02:52 3.6 °C -2.2 °C 996.5 hPa WSW 8 km/h 12.9 km/h 66% 0 mm 0 W/m2
02:58 3.6 °C -2 °C 996.5 hPa WSW 8 km/h 12.9 km/h 67% 0 mm 0 W/m2
03:03 3.6 °C -2 °C 996.5 hPa West 8 km/h 19.3 km/h 67% 0 mm 0 W/m2
03:12 3.2 °C -3.8 °C 996.5 hPa NW 16.1 km/h 20.9 km/h 60% 0 mm 0 W/m2
03:18 3.1 °C -3.9 °C 996.8 hPa West 16.1 km/h 24.1 km/h 60% 0 mm 0 W/m2
03:23 2.9 °C -4.1 °C 996.8 hPa SSE 14.5 km/h 33.8 km/h 60% 0 mm 0 W/m2
03:30 2.7 °C -3.8 °C 996.8 hPa WNW 12.9 km/h 12.9 km/h 62% 0 mm 0 W/m2
03:35 2.3 °C -4.4 °C 996.8 hPa WNW 12.9 km/h 12.9 km/h 61% 0 mm 0 W/m2
03:42 2.2 °C -4.8 °C 996.8 hPa West 14.5 km/h 20.9 km/h 60% 0 mm 0 W/m2
03:48 2 °C -5.2 °C 997.5 hPa West 12.9 km/h 20.9 km/h 59% 0 mm 0 W/m2
03:53 1.8 °C -5.2 °C 997.5 hPa West 12.9 km/h 17.7 km/h 60% 0 mm 0 W/m2
04:00 1.4 °C -4.7 °C 997.5 hPa WSW 14.5 km/h 14.5 km/h 64% 0 mm 0 W/m2
04:05 1.1 °C -5.4 °C 997.5 hPa West 14.5 km/h 20.9 km/h 62% 0 mm 0 W/m2
04:12 0.4 °C -5.2 °C 998.2 hPa WNW 19.3 km/h 27.4 km/h 66% 0 mm 0 W/m2
04:18 -1.8 °C -5.1 °C 998.5 hPa West 16.1 km/h 27.4 km/h 78% 0 mm 0 W/m2
04:24 -2.4 °C -4.9 °C 998.5 hPa NW 12.9 km/h 16.1 km/h 83% 0 mm 0 W/m2
04:29 -2.9 °C -5.1 °C 998.5 hPa West 12.9 km/h 12.9 km/h 85% 0 mm 0 W/m2
04:36 -3.2 °C -5.2 °C 998.9 hPa WNW 14.5 km/h 19.3 km/h 86% 0 mm 0 W/m2
04:42 -3.3 °C -5.3 °C 999.2 hPa WNW 14.5 km/h 14.5 km/h 86% 0 mm 0 W/m2
04:48 -3.5 °C -5.5 °C 999.5 hPa NW 12.9 km/h 20.9 km/h 86% 0 mm 0 W/m2
04:54 -3.6 °C -5.9 °C 999.9 hPa WNW 11.3 km/h 17.7 km/h 84% 0 mm 0 W/m2
05:00 -3.9 °C -6.7 °C 1000.2 hPa West 14.5 km/h 27.4 km/h 81% 0 mm 0 W/m2
05:06 -3.9 °C -6.9 °C 1000.2 hPa NW 16.1 km/h 27.4 km/h 80% 0 mm 0 W/m2
05:12 -3.8 °C -8.1 °C 1000.6 hPa West 14.5 km/h 14.5 km/h 72% 0 mm 0 W/m2
05:18 -3.7 °C -8.6 °C 1000.9 hPa NW 12.9 km/h 24.1 km/h 69% 0 mm 0 W/m2
05:23 -3.8 °C -9.2 °C 1000.9 hPa West 12.9 km/h 16.1 km/h 66% 0 mm 0 W/m2
05:29 -3.8 °C -9.4 °C 1001.2 hPa WNW 14.5 km/h 14.5 km/h 65% 0 mm 0 W/m2
05:36 -3.9 °C -10.5 °C 1001.2 hPa WNW 14.5 km/h 22.5 km/h 60% 0 mm 0 W/m2
05:42 -3.9 °C -10.6 °C 1001.6 hPa WNW 16.1 km/h 16.1 km/h 60% 0 mm 0 W/m2
05:48 -3.9 °C -11 °C 1002.3 hPa WNW 12.9 km/h 20.9 km/h 58% 0 mm 0 W/m2
05:53 -4 °C -10.4 °C 1002.3 hPa WNW 12.9 km/h 12.9 km/h 61% 0 mm 0 W/m2
05:59 -4.6 °C -8.9 °C 1002.9 hPa West 11.3 km/h 16.1 km/h 72% 0 mm 0 W/m2
06:05 -5.1 °C -8.7 °C 1002.9 hPa West 12.9 km/h 17.7 km/h 76% 0 mm 0 W/m2
06:12 -5.2 °C -8.6 °C 1002.9 hPa West 16.1 km/h 16.1 km/h 77% 0 mm 0 W/m2
06:18 -5.9 °C -8.3 °C 1003.3 hPa NW 16.1 km/h 25.7 km/h 83% 0 mm 0 W/m2
06:24 -6.2 °C -8.3 °C 1003.3 hPa West 16.1 km/h 22.5 km/h 85% 0 mm 0 W/m2
06:30 -6.4 °C -8.6 °C 1003.9 hPa WNW 17.7 km/h 30.6 km/h 85% 0 mm 0 W/m2
06:35 -6.5 °C -9.1 °C 1003.6 hPa NW 19.3 km/h 30.6 km/h 82% 0 mm 0 W/m2
06:42 -6.4 °C -9.4 °C 1003.9 hPa NW 14.5 km/h 19.3 km/h 79% 0 mm 0 W/m2
06:48 -6.4 °C -9.8 °C 1003.9 hPa NW 12.9 km/h 22.5 km/h 77% 0 mm 0 W/m2
06:54 -6.5 °C -9.9 °C 1003.9 hPa WNW 14.5 km/h 22.5 km/h 77% 0 mm 7 W/m2
07:00 -6.7 °C -9.9 °C 1004.3 hPa WNW 16.1 km/h 24.1 km/h 78% 0 mm 9 W/m2
07:06 -6.7 °C -9.8 °C 1004.6 hPa NW 12.9 km/h 24.1 km/h 79% 0 mm 12 W/m2
07:12 -6.8 °C -9.9 °C 1004.6 hPa NW 12.9 km/h 16.1 km/h 79% 0 mm 16 W/m2
07:18 -6.9 °C -9.6 °C 1005 hPa West 11.3 km/h 16.1 km/h 81% 0 mm 16 W/m2
07:23 -6.9 °C -9.4 °C 1005 hPa WNW 9.7 km/h 11.3 km/h 82% 0 mm 18 W/m2
07:29 -6.9 °C -9.3 °C 1005.3 hPa NW 9.7 km/h 11.3 km/h 83% 0 mm 30 W/m2
07:36 -6.9 °C -9.3 °C 1005 hPa West 11.3 km/h 20.9 km/h 83% 0 mm 42 W/m2
07:42 -6.8 °C -9.2 °C 1005.3 hPa West 12.9 km/h 12.9 km/h 83% 0 mm 49 W/m2
07:48 -6.7 °C -9.3 °C 1005.6 hPa West 12.9 km/h 22.5 km/h 82% 0 mm 54 W/m2
07:54 -6.7 °C -9.2 °C 1006 hPa WNW 12.9 km/h 12.9 km/h 82% 0 mm 47 W/m2
08:00 -6.7 °C -9.2 °C 1006.3 hPa West 9.7 km/h 16.1 km/h 82% 0 mm 44 W/m2
08:05 -6.7 °C -9.3 °C 1006.7 hPa WNW 9.7 km/h 16.1 km/h 82% 0 mm 62 W/m2
08:12 -6.8 °C -9.5 °C 1006.7 hPa NW 11.3 km/h 11.3 km/h 81% 0 mm 84 W/m2
08:18 -6.8 °C -9.4 °C 1007 hPa WNW 11.3 km/h 19.3 km/h 82% 0 mm 97 W/m2
08:24 -7.1 °C -9.6 °C 1007 hPa West 11.3 km/h 12.9 km/h 82% 0 mm 84 W/m2
08:30 -7.1 °C -9.5 °C 1007.3 hPa WNW 11.3 km/h 11.3 km/h 83% 0 mm 90 W/m2
08:35 -7.1 °C -9.3 °C 1007.3 hPa WNW 11.3 km/h 12.9 km/h 84% 0 mm 97 W/m2
08:42 -7.2 °C -9.4 °C 1007.7 hPa WNW 9.7 km/h 12.9 km/h 84% 0 mm 156 W/m2
08:48 -7.1 °C -9.2 °C 1008 hPa WNW 9.7 km/h 12.9 km/h 85% 0 mm 156 W/m2
08:54 -7 °C -9.2 °C 1008 hPa WNW 9.7 km/h 16.1 km/h 84% 0 mm 188 W/m2
09:00 -6.8 °C -9.3 °C 1008.4 hPa West 11.3 km/h 12.9 km/h 82% 0 mm 197 W/m2
09:06 -6.8 °C -9.8 °C 1008.4 hPa NW 12.9 km/h 19.3 km/h 79% 0 mm 207 W/m2
09:12 -6.7 °C -9.6 °C 1008.4 hPa West 12.9 km/h 25.7 km/h 80% 0 mm 292 W/m2
09:18 -6.4 °C -9.3 °C 1008.4 hPa West 11.3 km/h 25.7 km/h 80% 0 mm 258 W/m2
09:23 -6.3 °C -9.2 °C 1008.4 hPa WNW 11.3 km/h 20.9 km/h 80% 0 mm 218 W/m2
09:29 -6.2 °C -9.1 °C 1008.4 hPa West 9.7 km/h 9.7 km/h 80% 0 mm 197 W/m2
09:36 -6.1 °C -9 °C 1008.7 hPa West 9.7 km/h 11.3 km/h 80% 0 mm 223 W/m2
09:42 -5.8 °C -8.6 °C 1008.7 hPa WNW 8 km/h 9.7 km/h 81% 0 mm 195 W/m2
09:48 -5.8 °C -8.5 °C 1009 hPa WNW 8 km/h 9.7 km/h 81% 0 mm 207 W/m2
09:53 -5.7 °C -8.2 °C 1009.4 hPa NW 8 km/h 9.7 km/h 82% 0 mm 218 W/m2
09:59 -5.6 °C -8 °C 1009.4 hPa WNW 9.7 km/h 12.9 km/h 83% 0 mm 288 W/m2
10:05 -5.4 °C -7.9 °C 1009.4 hPa WNW 9.7 km/h 12.9 km/h 83% 0 mm 260 W/m2
10:12 -5.3 °C -7.7 °C 1009.4 hPa West 8 km/h 16.1 km/h 83% 0 mm 218 W/m2
10:18 -5.2 °C -7.7 °C 1009.7 hPa WNW 8 km/h 16.1 km/h 83% 0 mm 216 W/m2
10:24 -5.1 °C -7.5 °C 1009.7 hPa WNW 8 km/h 9.7 km/h 83% 0 mm 179 W/m2
10:30 -4.9 °C -7.2 °C 1010 hPa NW 8 km/h 8 km/h 84% 0 mm 278 W/m2
10:35 -4.7 °C -7.2 °C 1010 hPa WNW 8 km/h 11.3 km/h 83% 0 mm 260 W/m2
10:42 -4.6 °C -7.4 °C 1010 hPa WNW 9.7 km/h 12.9 km/h 81% 0 mm 262 W/m2
10:48 -4.4 °C -7.2 °C 1010.4 hPa NW 9.7 km/h 12.9 km/h 81% 0 mm 190 W/m2
10:53 -4.4 °C -7.4 °C 1010.4 hPa West 9.7 km/h 27.4 km/h 80% 0 mm 135 W/m2
11:00 -4.5 °C -7.3 °C 1010.4 hPa NW 11.3 km/h 11.3 km/h 81% 0 mm 167 W/m2
11:06 -4.4 °C -7 °C 1011.1 hPa WNW 9.7 km/h 17.7 km/h 82% 0 mm 151 W/m2
11:12 -4.3 °C -6.9 °C 1011.1 hPa WNW 8 km/h 8 km/h 82% 0 mm 121 W/m2
11:18 -4.3 °C -6.7 °C 1011.1 hPa NW 6.4 km/h 8 km/h 83% 0 mm 158 W/m2
11:24 -4.2 °C -6.9 °C 1011.1 hPa WNW 8 km/h 17.7 km/h 81% 0 mm 193 W/m2
11:29 -4.1 °C -7.3 °C 1011.1 hPa WSW 11.3 km/h 12.9 km/h 78% 0 mm 267 W/m2
11:35 -3.9 °C -7.5 °C 1011.4 hPa NW 12.9 km/h 12.9 km/h 76% 0 mm 290 W/m2
11:42 -3.4 °C -7.6 °C 1011.4 hPa WNW 11.3 km/h 12.9 km/h 73% 0 mm 364 W/m2
11:48 -2.9 °C -7.3 °C 1011.4 hPa NW 9.7 km/h 9.7 km/h 72% 0 mm 371 W/m2
11:53 -3 °C -7.7 °C 1011.4 hPa WNW 9.7 km/h 14.5 km/h 70% 0 mm 359 W/m2
11:59 -3.1 °C -7.9 °C 1011.4 hPa NNW 14.5 km/h 17.7 km/h 69% 0 mm 301 W/m2
12:05 -2.6 °C -7.7 °C 1011.7 hPa WNW 12.9 km/h 17.7 km/h 68% 0 mm 350 W/m2
12:12 -2.6 °C -8.1 °C 1011.7 hPa NW 11.3 km/h 11.3 km/h 66% 0 mm 237 W/m2
12:18 -2.7 °C -8.8 °C 1012.1 hPa NW 12.9 km/h 16.1 km/h 63% 0 mm 357 W/m2
12:23 -2.7 °C -8.6 °C 1012.1 hPa NW 12.9 km/h 16.1 km/h 64% 0 mm 230 W/m2
12:29 -2.3 °C -8.8 °C 1012.1 hPa WNW 12.9 km/h 12.9 km/h 61% 0 mm 396 W/m2
12:36 -2.4 °C -8.7 °C 1011.7 hPa WNW 12.9 km/h 14.5 km/h 62% 0 mm 207 W/m2
12:42 -2.5 °C -8.4 °C 1012.1 hPa NW 12.9 km/h 12.9 km/h 64% 0 mm 269 W/m2
12:48 -2.3 °C -8 °C 1012.1 hPa WNW 11.3 km/h 12.9 km/h 65% 0 mm 241 W/m2
12:53 -2.1 °C -8.6 °C 1012.1 hPa NW 11.3 km/h 14.5 km/h 61% 0 mm 408 W/m2
12:59 -1.8 °C -8.7 °C 1012.1 hPa NW 12.9 km/h 16.1 km/h 59% 0 mm 329 W/m2
13:05 -1.3 °C -8.1 °C 1012.1 hPa WNW 12.9 km/h 16.1 km/h 60% 0 mm 932 W/m2
13:12 -1.7 °C -8.4 °C 1012.4 hPa WNW 12.9 km/h 22.5 km/h 60% 0 mm 434 W/m2
13:18 -1.8 °C -8.6 °C 1012.4 hPa NW 12.9 km/h 22.5 km/h 60% 0 mm 355 W/m2
13:23 -1.8 °C -8.7 °C 1012.4 hPa WSW 12.9 km/h 20.9 km/h 59% 0 mm 292 W/m2
13:29 -1.7 °C -8.4 °C 1012.8 hPa NW 12.9 km/h 19.3 km/h 60% 0 mm 279 W/m2
13:36 -1.9 °C -9.1 °C 1012.8 hPa West 12.9 km/h 19.3 km/h 58% 0 mm 179 W/m2
13:42 -1.7 °C -8.8 °C 1012.8 hPa NW 12.9 km/h 12.9 km/h 58% 0 mm 800 W/m2
13:48 -1.5 °C -8.5 °C 1012.8 hPa WNW 12.9 km/h 14.5 km/h 59% 0 mm 313 W/m2
13:53 -1.3 °C -8.5 °C 1013.1 hPa West 12.9 km/h 12.9 km/h 58% 0 mm 274 W/m2
14:00 -1.4 °C -8.4 °C 1013.1 hPa NW 9.7 km/h 9.7 km/h 59% 0 mm 244 W/m2
14:06 -1.4 °C -7.9 °C 1013.1 hPa WSW 9.7 km/h 17.7 km/h 61% 0 mm 480 W/m2
14:12 -1.6 °C -9.2 °C 1013.1 hPa WNW 12.9 km/h 25.7 km/h 56% 0 mm 183 W/m2
14:18 -1.7 °C -8.4 °C 1013.4 hPa West 14.5 km/h 25.7 km/h 60% 0 mm 731 W/m2
14:23 -1.4 °C -8.4 °C 1013.4 hPa West 12.9 km/h 14.5 km/h 59% 0 mm 216 W/m2
14:30 -1.9 °C -8.9 °C 1013.4 hPa West 12.9 km/h 12.9 km/h 59% 0 mm 200 W/m2
14:36 -2.1 °C -9.1 °C 1013.4 hPa WNW 14.5 km/h 16.1 km/h 59% 0 mm 130 W/m2
14:42 -2.2 °C -8.9 °C 1013.8 hPa WNW 12.9 km/h 12.9 km/h 60% 0 mm 156 W/m2
14:48 -2 °C -8.7 °C 1013.8 hPa West 12.9 km/h 16.1 km/h 60% 0 mm 218 W/m2
14:54 -2.2 °C -8.9 °C 1013.8 hPa NW 12.9 km/h 16.1 km/h 60% 0 mm 127 W/m2
15:00 -2.3 °C -9.7 °C 1013.8 hPa West 12.9 km/h 12.9 km/h 57% 0 mm 199 W/m2
15:06 -1.7 °C -8.9 °C 1014.4 hPa WSW 12.9 km/h 22.5 km/h 58% 0 mm 635 W/m2
15:12 -1.6 °C -9.2 °C 1014.4 hPa WNW 12.9 km/h 12.9 km/h 56% 0 mm 668 W/m2
15:18 -1.3 °C -8.9 °C 1014.4 hPa NW 11.3 km/h 12.9 km/h 56% 0 mm 591 W/m2
15:23 -1.7 °C -9.3 °C 1014.8 hPa WNW 11.3 km/h 16.1 km/h 56% 0 mm 197 W/m2
15:29 -1.7 °C -8.8 °C 1014.8 hPa West 11.3 km/h 14.5 km/h 58% 0 mm 446 W/m2
15:36 -1.5 °C -8.5 °C 1014.8 hPa WNW 11.3 km/h 14.5 km/h 59% 0 mm 190 W/m2
15:42 -1.7 °C -8.9 °C 1014.8 hPa WNW 9.7 km/h 12.9 km/h 58% 0 mm 156 W/m2
15:48 -1.9 °C -9.1 °C 1014.8 hPa West 12.9 km/h 14.5 km/h 58% 0 mm 181 W/m2
15:53 -2 °C -9.2 °C 1015.1 hPa West 11.3 km/h 12.9 km/h 58% 0 mm 118 W/m2
16:00 -2.2 °C -8.9 °C 1015.1 hPa WNW 11.3 km/h 11.3 km/h 60% 0 mm 104 W/m2
16:06 -2.1 °C -9.5 °C 1015.5 hPa West 9.7 km/h 11.3 km/h 57% 0 mm 132 W/m2
16:12 -2 °C -9.2 °C 1015.5 hPa WNW 9.7 km/h 11.3 km/h 58% 0 mm 120 W/m2
16:18 -2 °C -8.9 °C 1015.5 hPa West 9.7 km/h 11.3 km/h 59% 0 mm 100 W/m2
16:24 -2.1 °C -9.2 °C 1015.5 hPa NW 9.7 km/h 12.9 km/h 58% 0 mm 109 W/m2
16:30 -2.2 °C -9.4 °C 1015.5 hPa NW 11.3 km/h 11.3 km/h 58% 0 mm 91 W/m2
16:36 -2.3 °C -9.7 °C 1015.5 hPa West 12.9 km/h 12.9 km/h 57% 0 mm 70 W/m2
16:42 -2.4 °C -9.6 °C 1015.8 hPa WNW 11.3 km/h 11.3 km/h 58% 0 mm 53 W/m2
16:48 -2.4 °C -9.6 °C 1015.8 hPa NW 11.3 km/h 12.9 km/h 58% 0 mm 37 W/m2
16:53 -2.5 °C -9.7 °C 1015.8 hPa WNW 11.3 km/h 25.7 km/h 58% 0 mm 33 W/m2
16:59 -2.5 °C -9.7 °C 1015.8 hPa West 11.3 km/h 12.9 km/h 58% 0 mm 32 W/m2
17:06 -2.6 °C -9.5 °C 1015.8 hPa NW 9.7 km/h 12.9 km/h 59% 0 mm 28 W/m2
17:18 -2.6 °C -9.3 °C 1016.5 hPa NNW 9.7 km/h 16.1 km/h 60% 0 mm 35 W/m2
17:23 -2.6 °C -9.3 °C 1016.5 hPa NW 9.7 km/h 9.7 km/h 60% 0 mm 33 W/m2
17:30 -2.6 °C -9.3 °C 1016.5 hPa WSW 8 km/h 12.9 km/h 60% 0 mm 19 W/m2
17:36 -2.7 °C -9.2 °C 1016.5 hPa WNW 8 km/h 14.5 km/h 61% 0 mm 18 W/m2
17:42 -2.7 °C -9.4 °C 1016.5 hPa WNW 9.7 km/h 11.3 km/h 60% 0 mm 16 W/m2
17:48 -2.7 °C -9.2 °C 1016.5 hPa WNW 8 km/h 11.3 km/h 61% 0 mm 12 W/m2
17:53 -2.7 °C -9.2 °C 1016.5 hPa NW 6.4 km/h 11.3 km/h 61% 0 mm 0 W/m2
17:59 -2.7 °C -8.9 °C 1016.8 hPa NW 6.4 km/h 9.7 km/h 62% 0 mm 0 W/m2
18:06 -2.6 °C -8.9 °C 1016.8 hPa WNW 8 km/h 11.3 km/h 62% 0 mm 0 W/m2
18:12 -2.6 °C -8.7 °C 1017.2 hPa NNW 9.7 km/h 12.9 km/h 63% 0 mm 0 W/m2
18:18 -2.6 °C -8.7 °C 1017.2 hPa WNW 8 km/h 12.9 km/h 63% 0 mm 0 W/m2
18:23 -2.6 °C -8.7 °C 1017.2 hPa WNW 6.4 km/h 11.3 km/h 63% 0 mm 0 W/m2
18:29 -2.6 °C -8.8 °C 1017.2 hPa NW 8 km/h 8 km/h 62% 0 mm 0 W/m2
18:33 -2.6 °C -8.7 °C 1017.5 hPa WNW 9.7 km/h 12.9 km/h 63% 0 mm 0 W/m2
18:40 -2.7 °C -8.7 °C 1017.5 hPa WNW 9.7 km/h 9.7 km/h 63% 0 mm 0 W/m2
18:46 -2.7 °C -8.6 °C 1017.5 hPa WNW 8 km/h 9.7 km/h 64% 0 mm 0 W/m2
18:52 -2.7 °C -8.7 °C 1017.8 hPa NW 6.4 km/h 6.4 km/h 63% 0 mm 0 W/m2
18:58 -2.7 °C -8.9 °C 1017.8 hPa WNW 8 km/h 9.7 km/h 62% 0 mm 0 W/m2
19:03 -2.7 °C -8.8 °C 1017.8 hPa WNW 8 km/h 9.7 km/h 63% 0 mm 0 W/m2
19:09 -2.7 °C -8.6 °C 1017.8 hPa WNW 9.7 km/h 9.7 km/h 64% 0 mm 0 W/m2
19:15 -2.7 °C -8.6 °C 1018.2 hPa WNW 9.7 km/h 9.7 km/h 64% 0 mm 0 W/m2
19:22 -2.7 °C -8.4 °C 1018.2 hPa WNW 8 km/h 11.3 km/h 65% 0 mm 0 W/m2
19:28 -2.7 °C -8.2 °C 1018.2 hPa WNW 8 km/h 12.9 km/h 66% 0 mm 0 W/m2
19:34 -2.7 °C -8.3 °C 1018.2 hPa NW 8 km/h 12.9 km/h 65% 0 mm 0 W/m2
19:39 -2.6 °C -8.3 °C 1018.2 hPa WNW 8 km/h 8 km/h 65% 0 mm 0 W/m2
19:45 -2.7 °C -8.6 °C 1018.2 hPa West 6.4 km/h 8 km/h 64% 0 mm 0 W/m2
19:52 -2.7 °C -8.6 °C 1018.2 hPa WNW 6.4 km/h 6.4 km/h 64% 0 mm 0 W/m2
19:58 -2.7 °C -8.8 °C 1018.2 hPa WNW 6.4 km/h 9.7 km/h 63% 0 mm 0 W/m2
20:04 -2.7 °C -8.6 °C 1018.2 hPa WNW 6.4 km/h 17.7 km/h 64% 0 mm 0 W/m2
20:10 -2.6 °C -8.5 °C 1018.2 hPa WNW 6.4 km/h 6.4 km/h 64% 0 mm 0 W/m2
20:15 -2.6 °C -8.5 °C 1018.2 hPa WNW 8 km/h 9.7 km/h 64% 0 mm 0 W/m2
20:22 -2.7 °C -8.6 °C 1018.5 hPa NW 8 km/h 9.7 km/h 64% 0 mm 0 W/m2
20:28 -2.7 °C -8.8 °C 1018.5 hPa WNW 8 km/h 11.3 km/h 63% 0 mm 0 W/m2
20:34 -2.8 °C -8.9 °C 1018.5 hPa WNW 8 km/h 12.9 km/h 63% 0 mm 0 W/m2
20:39 -2.9 °C -9 °C 1018.5 hPa WNW 8 km/h 8 km/h 63% 0 mm 0 W/m2
20:45 -3 °C -9.1 °C 1018.8 hPa NW 8 km/h 9.7 km/h 63% 0 mm 0 W/m2
20:52 -3.1 °C -9.3 °C 1018.8 hPa WNW 8 km/h 9.7 km/h 62% 0 mm 0 W/m2
20:58 -3.1 °C -9.1 °C 1018.8 hPa West 8 km/h 9.7 km/h 63% 0 mm 0 W/m2
21:04 -3.1 °C -9.3 °C 1018.8 hPa WNW 8 km/h 14.5 km/h 62% 0 mm 0 W/m2
21:10 -3.1 °C -9.1 °C 1018.8 hPa WNW 8 km/h 8 km/h 63% 0 mm 0 W/m2
21:15 -3.1 °C -9.1 °C 1018.8 hPa WNW 6.4 km/h 8 km/h 63% 0 mm 0 W/m2
21:22 -3.1 °C -8.7 °C 1019.2 hPa WNW 6.4 km/h 12.9 km/h 65% 0 mm 0 W/m2
21:28 -3.1 °C -8.9 °C 1019.2 hPa West 8 km/h 12.9 km/h 64% 0 mm 0 W/m2
21:36 -3.2 °C -9.2 °C 1019.2 hPa NW 8 km/h 12.9 km/h 63% 0 mm 0 W/m2
21:42 -3.3 °C -9.6 °C 1019.2 hPa NW 6.4 km/h 12.9 km/h 62% 0 mm 0 W/m2
21:48 -3.4 °C -9.7 °C 1019.2 hPa WNW 8 km/h 8 km/h 62% 0 mm 0 W/m2
21:53 -3.6 °C -9.8 °C 1019.2 hPa WNW 8 km/h 9.7 km/h 62% 0 mm 0 W/m2
21:59 -3.6 °C -9.8 °C 1019.2 hPa NW 6.4 km/h 6.4 km/h 62% 0 mm 0 W/m2
22:05 -3.7 °C -9.9 °C 1019.2 hPa NNW 6.4 km/h 11.3 km/h 62% 0 mm 0 W/m2
22:12 -3.7 °C -10.1 °C 1019.5 hPa WNW 8 km/h 9.7 km/h 61% 0 mm 0 W/m2
22:18 -3.7 °C -10.2 °C 1019.5 hPa NW 8 km/h 11.3 km/h 61% 0 mm 0 W/m2
22:26 -3.8 °C -10.3 °C 1019.5 hPa NW 6.4 km/h 11.3 km/h 61% 0 mm 0 W/m2
22:32 -3.9 °C -10.2 °C 1019.5 hPa NW 4.8 km/h 6.4 km/h 62% 0 mm 0 W/m2
22:38 -4.1 °C -10.7 °C 1019.5 hPa WNW 4.8 km/h 6.4 km/h 60% 0 mm 0 W/m2
22:43 -4.2 °C -10.6 °C 1019.5 hPa WNW 3.2 km/h 9.7 km/h 61% 0 mm 0 W/m2
22:49 -4.2 °C -11 °C 1019.9 hPa West 4.8 km/h 11.3 km/h 59% 0 mm 0 W/m2
22:55 -4.1 °C -10.7 °C 1019.9 hPa WNW 6.4 km/h 11.3 km/h 60% 0 mm 0 W/m2
23:02 -4.1 °C -10.7 °C 1019.9 hPa WNW 6.4 km/h 6.4 km/h 60% 0 mm 0 W/m2
23:08 -4.2 °C -10.6 °C 1019.9 hPa NW 4.8 km/h 8 km/h 61% 0 mm 0 W/m2
23:13 -4.2 °C -10.8 °C 1019.9 hPa NW 4.8 km/h 6.4 km/h 60% 0 mm 0 W/m2
23:19 -4.3 °C -10.7 °C 1019.9 hPa West 4.8 km/h 11.3 km/h 61% 0 mm 0 W/m2
23:26 -4.4 °C -10.8 °C 1019.9 hPa West 4.8 km/h 14.5 km/h 61% 0 mm 0 W/m2
23:32 -4.5 °C -11.1 °C 1019.9 hPa NNW 6.4 km/h 14.5 km/h 60% 0 mm 0 W/m2
23:38 -4.7 °C -11.3 °C 1019.9 hPa NW 6.4 km/h 14.5 km/h 60% 0 mm 0 W/m2
23:44 -4.8 °C -11.2 °C 1019.9 hPa WNW 8 km/h 14.5 km/h 61% 0 mm 0 W/m2
23:49 -4.9 °C -11.3 °C 1020.2 hPa WNW 4.8 km/h 8 km/h 61% 0 mm 0 W/m2
23:56 -5 °C -11.2 °C 1020.2 hPa WNW 4.8 km/h 8 km/h 62% 0 mm 0 W/m2
Country Meadow, Clay, NY, USA
Compliments of Weather Underground - 2 mb